createdAt,value
2022-12-27T00:01:03.467Z,102092.25
2022-12-27T00:03:31.556Z,102076.03
2022-12-27T00:05:59.297Z,102080.19
2022-12-27T00:08:26.877Z,102083.75
2022-12-27T00:10:54.481Z,102088.16
2022-12-27T00:13:23.771Z,102082.94
2022-12-27T00:15:51.274Z,102087.34
2022-12-27T00:18:18.798Z,102081.81
2022-12-27T00:20:46.369Z,102081.88
2022-12-27T00:23:13.908Z,102078.44
2022-12-27T00:25:41.375Z,102087.22
2022-12-27T00:28:08.860Z,102089.34
2022-12-27T00:30:36.359Z,102084.59
2022-12-27T00:33:03.906Z,102089.59
2022-12-27T00:35:31.378Z,102090.56
2022-12-27T00:37:58.956Z,102093.13
2022-12-27T00:40:26.448Z,102081.06
2022-12-27T00:42:53.927Z,102081.06
2022-12-27T00:45:21.430Z,102081.06
2022-12-27T00:47:48.907Z,102075.91
2022-12-27T00:50:16.535Z,102081.63
2022-12-27T00:52:44.096Z,102087.84
2022-12-27T00:55:11.677Z,102104.38
2022-12-27T00:57:39.194Z,102107.19
2022-12-27T01:00:10.521Z,102117.38
2022-12-27T01:02:38.838Z,102110.84
2022-12-27T01:05:07.434Z,102116.13
2022-12-27T01:07:35.138Z,102115.03
2022-12-27T01:10:02.646Z,102114.88
2022-12-27T01:12:30.456Z,102107.06
2022-12-27T01:14:57.976Z,102105.31
2022-12-27T01:17:25.502Z,102112.09
2022-12-27T01:19:53.003Z,102114.47
2022-12-27T01:22:20.516Z,102120.25
2022-12-27T01:24:48.239Z,102118.63
2022-12-27T01:27:15.770Z,102140.56
2022-12-27T01:29:43.359Z,102148.44
2022-12-27T01:32:11.261Z,102158.84
2022-12-27T01:34:38.749Z,102154.84
2022-12-27T01:37:06.257Z,102158.19
2022-12-27T01:39:33.775Z,102158.34
2022-12-27T01:42:18.819Z,102150.81
2022-12-27T01:44:52.121Z,102149.03
2022-12-27T01:47:22.991Z,102155.00
2022-12-27T01:50:06.272Z,102162.72
2022-12-27T01:52:44.610Z,102168.84
2022-12-27T01:55:37.871Z,102168.94
2022-12-27T01:58:29.860Z,102168.16
2022-12-27T02:00:58.373Z,102169.63
2022-12-27T02:03:30.191Z,102181.97
2022-12-27T02:06:01.121Z,102184.38
2022-12-27T02:08:38.069Z,102183.91
2022-12-27T02:11:07.452Z,102189.75
2022-12-27T02:13:39.227Z,102185.22
2022-12-27T02:16:18.633Z,102191.13
2022-12-27T02:18:47.838Z,102187.00
2022-12-27T02:21:24.387Z,102188.75
2022-12-27T02:24:07.478Z,102180.91
2022-12-27T02:26:45.081Z,102186.72
2022-12-27T02:29:42.608Z,102192.56
2022-12-27T02:32:15.927Z,102179.44
2022-12-27T02:35:08.241Z,102184.72
2022-12-27T02:37:41.080Z,102194.16
2022-12-27T02:40:28.643Z,102189.19
2022-12-27T02:43:14.469Z,102201.19
2022-12-27T02:46:08.994Z,102213.53
2022-12-27T02:48:53.853Z,102212.84
2022-12-27T02:51:44.897Z,102208.75
2022-12-27T02:54:24.275Z,102215.28
2022-12-27T02:57:31.316Z,102223.00
2022-12-27T03:00:25.700Z,102219.81
2022-12-27T03:03:42.640Z,102223.69
2022-12-27T03:06:35.388Z,102222.81
2022-12-27T03:09:48.298Z,102216.09
2022-12-27T03:12:48.457Z,102225.72
2022-12-27T03:15:49.125Z,102220.44
2022-12-27T03:18:23.888Z,102218.03
2022-12-27T03:21:09.242Z,102218.91
2022-12-27T03:23:58.520Z,102213.91
2022-12-27T03:26:29.455Z,102218.91
2022-12-27T03:29:17.248Z,102227.53
2022-12-27T03:32:07.763Z,102228.59
2022-12-27T03:34:40.771Z,102237.41
2022-12-27T03:37:41.262Z,102233.75
2022-12-27T03:40:16.224Z,102235.34
2022-12-27T03:43:09.976Z,102241.28
2022-12-27T03:46:20.004Z,102255.59
2022-12-27T03:49:06.490Z,102256.34
2022-12-27T03:51:40.121Z,102244.31
2022-12-27T03:54:17.265Z,102245.78
2022-12-27T03:56:44.840Z,102245.78
2022-12-27T03:59:13.594Z,102253.31
2022-12-27T04:01:42.496Z,102243.19
2022-12-27T04:04:10.142Z,102245.13
2022-12-27T04:06:37.677Z,102238.25
2022-12-27T04:09:22.876Z,102252.97
2022-12-27T04:12:07.485Z,102259.47
2022-12-27T04:14:52.283Z,102259.34
2022-12-27T04:17:37.132Z,102252.44
2022-12-27T04:20:22.505Z,102245.59
2022-12-27T04:23:07.416Z,102252.56
2022-12-27T04:25:52.274Z,102252.44
2022-12-27T04:28:37.154Z,102249.25
2022-12-27T04:31:21.958Z,102261.38
2022-12-27T04:34:07.018Z,102261.22
2022-12-27T04:36:34.533Z,102258.03
2022-12-27T04:39:02.029Z,102260.00
2022-12-27T04:41:47.443Z,102256.88
2022-12-27T04:44:32.801Z,102268.94
2022-12-27T04:47:18.119Z,102276.50
2022-12-27T04:50:03.448Z,102269.63
2022-12-27T04:52:53.766Z,102266.97
2022-12-27T04:55:25.320Z,102266.13
2022-12-27T04:57:53.989Z,102267.19
2022-12-27T05:00:41.268Z,102264.81
2022-12-27T05:03:13.364Z,102269.63
2022-12-27T05:05:42.826Z,102268.56
2022-12-27T05:08:28.859Z,102252.56
2022-12-27T05:11:14.095Z,102276.16
2022-12-27T05:13:59.532Z,102273.56
2022-12-27T05:16:28.798Z,102271.81
2022-12-27T05:18:57.940Z,102255.84
2022-12-27T05:21:25.939Z,102276.97
2022-12-27T05:24:16.289Z,102277.72
2022-12-27T05:26:43.813Z,102286.53
2022-12-27T05:29:11.418Z,102283.00
2022-12-27T05:31:39.082Z,102264.91
2022-12-27T05:34:07.425Z,102291.81
2022-12-27T05:36:35.136Z,102290.91
2022-12-27T05:39:02.816Z,102288.84
2022-12-27T05:41:30.386Z,102297.19
2022-12-27T05:44:04.847Z,102301.38
2022-12-27T05:46:34.561Z,102303.94
2022-12-27T05:49:02.083Z,102298.66
2022-12-27T05:51:29.626Z,102304.56
2022-12-27T05:53:57.351Z,102292.78
2022-12-27T05:56:24.943Z,102304.56
2022-12-27T05:58:55.501Z,102312.34
2022-12-27T06:01:23.578Z,102313.94
2022-12-27T06:03:51.123Z,102310.59
2022-12-27T06:06:18.684Z,102320.91
2022-12-27T06:08:46.398Z,102296.50
2022-12-27T06:11:16.859Z,102306.94
2022-12-27T06:13:49.374Z,102312.88
2022-12-27T06:16:16.949Z,102323.13
2022-12-27T06:18:44.459Z,102329.03
2022-12-27T06:21:15.863Z,102332.16
2022-12-27T06:23:45.665Z,102343.09
2022-12-27T06:26:17.243Z,102346.28
2022-12-27T06:28:44.845Z,102338.44
2022-12-27T06:31:12.837Z,102340.03
2022-12-27T06:33:40.539Z,102346.28
2022-12-27T06:36:10.164Z,102350.56
2022-12-27T06:38:38.533Z,102351.72
2022-12-27T06:41:17.284Z,102355.69
2022-12-27T06:43:46.009Z,102331.00
2022-12-27T06:46:17.830Z,102363.66
2022-12-27T06:48:47.637Z,102361.13
2022-12-27T06:51:17.056Z,102363.66
2022-12-27T06:53:44.609Z,102365.31
2022-12-27T06:56:16.637Z,102376.88
2022-12-27T06:58:44.318Z,102383.66
2022-12-27T07:01:32.200Z,102378.50
2022-12-27T07:04:01.602Z,102374.13
2022-12-27T07:06:31.347Z,102370.31
2022-12-27T07:09:01.226Z,102371.16
2022-12-27T07:11:29.092Z,102373.88
2022-12-27T07:13:57.013Z,102373.06
2022-12-27T07:16:26.557Z,102386.00
2022-12-27T07:18:56.299Z,102373.94
2022-12-27T07:21:25.855Z,102374.72
2022-12-27T07:23:53.518Z,102378.06
2022-12-27T07:26:31.143Z,102376.53
2022-12-27T07:29:01.303Z,102386.75
2022-12-27T07:31:31.590Z,102383.06
2022-12-27T07:34:01.807Z,102378.94
2022-12-27T07:36:33.950Z,102381.44
2022-12-27T07:39:01.613Z,102382.13
2022-12-27T07:41:29.279Z,102391.59
2022-12-27T07:43:56.831Z,102396.91
2022-12-27T07:46:26.978Z,102392.50
2022-12-27T07:48:56.461Z,102393.44
2022-12-27T07:51:24.942Z,102397.84
2022-12-27T07:53:53.451Z,102397.47
2022-12-27T07:56:27.012Z,102406.88
2022-12-27T07:58:56.985Z,102424.13
2022-12-27T08:01:26.433Z,102419.84
2022-12-27T08:03:54.226Z,102430.13
2022-12-27T08:06:34.238Z,102436.31
2022-12-27T08:09:06.381Z,102434.50
2022-12-27T08:11:34.200Z,102444.16
2022-12-27T08:14:01.882Z,102440.75
2022-12-27T08:16:29.508Z,102426.03
2022-12-27T08:18:57.262Z,102431.00
2022-12-27T08:21:24.798Z,102438.97
2022-12-27T08:23:52.586Z,102433.66
2022-12-27T08:26:20.173Z,102433.94
2022-12-27T08:28:47.930Z,102437.75
2022-12-27T08:31:15.679Z,102442.88
2022-12-27T08:33:43.355Z,102437.25
2022-12-27T08:36:54.231Z,102433.94
2022-12-27T08:39:01.192Z,102434.00
2022-12-27T08:41:28.939Z,102444.16
2022-12-27T08:43:56.565Z,102435.66
2022-12-27T08:46:24.220Z,102410.66
2022-12-27T08:48:52.624Z,102428.91
2022-12-27T08:51:32.771Z,102433.31
2022-12-27T08:54:06.296Z,102428.97
2022-12-27T08:56:34.048Z,102428.44
2022-12-27T08:59:01.697Z,102418.53
2022-12-27T09:01:29.573Z,102428.63
2022-12-27T09:03:57.214Z,102427.75
2022-12-27T09:06:27.742Z,102434.94
2022-12-27T09:08:56.461Z,102428.81
2022-12-27T09:11:28.199Z,102431.41
2022-12-27T09:13:56.573Z,102430.06
2022-12-27T09:16:27.569Z,102438.59
2022-12-27T09:18:56.927Z,102441.41
2022-12-27T09:21:26.905Z,102441.72
2022-12-27T09:23:55.573Z,102445.63
2022-12-27T09:26:28.364Z,102439.63
2022-12-27T09:28:57.301Z,102452.88
2022-12-27T09:31:26.406Z,102459.38
2022-12-27T09:33:54.538Z,102450.75
2022-12-27T09:36:24.762Z,102464.88
2022-12-27T09:38:54.488Z,102450.31
2022-12-27T09:42:34.187Z,102454.72
2022-12-27T09:44:48.052Z,102464.00
2022-12-27T09:47:22.844Z,102457.69
2022-12-27T09:49:56.531Z,102464.59
2022-12-27T09:52:30.788Z,102462.81
2022-12-27T09:55:13.380Z,102465.25
2022-12-27T09:57:41.818Z,102461.28
2022-12-27T10:00:34.097Z,102458.91
2022-12-27T10:03:06.878Z,102462.75
2022-12-27T10:05:37.543Z,102452.75
2022-12-27T10:08:32.033Z,102461.91
2022-12-27T10:11:08.494Z,102456.38
2022-12-27T10:13:58.694Z,102455.84
2022-12-27T10:16:41.391Z,102461.00
2022-12-27T10:19:27.544Z,102467.00
2022-12-27T10:22:22.371Z,102473.75
2022-12-27T10:24:56.823Z,102468.06
2022-12-27T10:27:27.197Z,102464.75
2022-12-27T10:29:59.652Z,102463.06
2022-12-27T10:32:27.500Z,102473.84
2022-12-27T10:35:01.783Z,102463.59
2022-12-27T10:37:30.552Z,102464.25
2022-12-27T10:40:10.702Z,102473.69
2022-12-27T10:42:42.017Z,102474.97
2022-12-27T10:45:42.356Z,102475.69
2022-12-27T10:48:47.338Z,102463.41
2022-12-27T10:51:17.918Z,102462.91
2022-12-27T10:53:48.298Z,102462.78
2022-12-27T10:56:30.842Z,102465.03
2022-12-27T10:59:17.643Z,102461.75
2022-12-27T11:01:47.048Z,102463.28
2022-12-27T11:04:20.271Z,102456.16
2022-12-27T11:07:11.740Z,102453.47
2022-12-27T11:09:51.184Z,102466.31
2022-12-27T11:12:24.773Z,102442.09
2022-12-27T11:15:15.741Z,102441.94
2022-12-27T11:17:45.029Z,102436.06
2022-12-27T11:20:12.653Z,102437.81
2022-12-27T11:23:05.095Z,102448.03
2022-12-27T11:25:34.558Z,102441.13
2022-12-27T11:28:38.965Z,102436.81
2022-12-27T11:31:11.623Z,102436.00
2022-12-27T11:33:48.424Z,102437.31
2022-12-27T11:36:36.656Z,102433.19
2022-12-27T11:39:05.665Z,102434.28
2022-12-27T11:41:38.244Z,102439.44
2022-12-27T11:44:06.012Z,102422.72
2022-12-27T11:46:41.974Z,102422.91
2022-12-27T11:49:20.987Z,102419.47
2022-12-27T11:52:13.265Z,102424.38
2022-12-27T11:54:59.070Z,102416.09
2022-12-27T11:57:49.564Z,102403.66
2022-12-27T12:00:21.813Z,102402.56
2022-12-27T12:03:33.432Z,102412.69
2022-12-27T12:06:34.584Z,102402.75
2022-12-27T12:09:31.217Z,102403.69
2022-12-27T12:12:05.757Z,102400.44
2022-12-27T12:14:47.202Z,102399.91
2022-12-27T12:17:36.174Z,102395.63
2022-12-27T12:20:18.399Z,102397.50
2022-12-27T12:23:01.107Z,102390.88
2022-12-27T12:25:46.999Z,102381.50
2022-12-27T12:28:56.240Z,102384.25
2022-12-27T12:31:30.027Z,102368.59
2022-12-27T12:34:03.575Z,102375.81
2022-12-27T12:37:02.301Z,102374.22
2022-12-27T12:39:45.256Z,102364.34
2022-12-27T12:42:24.134Z,102351.22
2022-12-27T12:45:17.915Z,102349.53
2022-12-27T12:48:14.227Z,102343.50
2022-12-27T12:51:12.022Z,102343.41
2022-12-27T12:54:05.447Z,102331.25
2022-12-27T12:56:45.190Z,102324.63
2022-12-27T12:59:19.068Z,102321.41
2022-12-27T13:01:55.695Z,102319.56
2022-12-27T13:04:35.733Z,102311.78
2022-12-27T13:07:30.329Z,102307.75
2022-12-27T13:10:28.584Z,102300.03
2022-12-27T13:13:22.494Z,102289.94
2022-12-27T13:16:27.512Z,102290.75
2022-12-27T13:19:37.881Z,102289.00
2022-12-27T13:22:42.064Z,102285.78
2022-12-27T13:25:28.116Z,102285.38
2022-12-27T13:28:30.506Z,102288.66
2022-12-27T13:31:31.999Z,102279.81
2022-12-27T13:34:25.848Z,102278.59
2022-12-27T13:37:12.642Z,102280.31
2022-12-27T13:40:02.145Z,102280.47
2022-12-27T13:43:02.348Z,102274.16
2022-12-27T13:45:56.258Z,102260.06
2022-12-27T13:49:05.484Z,102248.09
2022-12-27T13:51:39.072Z,102241.06
2022-12-27T13:54:13.510Z,102235.78
2022-12-27T13:57:06.143Z,102241.06
2022-12-27T14:00:00.173Z,102237.34
2022-12-27T14:02:53.950Z,102235.50
2022-12-27T14:06:08.975Z,102235.50
2022-12-27T14:09:19.125Z,102228.84
2022-12-27T14:12:22.429Z,102215.16
2022-12-27T14:14:51.622Z,102212.38
2022-12-27T14:17:44.509Z,102214.44
2022-12-27T14:20:46.242Z,102212.56
2022-12-27T14:23:35.307Z,102212.75
2022-12-27T14:26:27.239Z,102216.06
2022-12-27T14:29:30.132Z,102210.72
2022-12-27T14:32:40.825Z,102207.19
2022-12-27T14:35:27.373Z,102196.75
2022-12-27T14:38:19.645Z,102196.75
2022-12-27T14:40:50.685Z,102205.41
2022-12-27T14:43:21.435Z,102210.34
2022-12-27T14:46:26.480Z,102210.63
2022-12-27T14:49:13.206Z,102205.41
2022-12-27T14:52:14.845Z,102203.59
2022-12-27T14:55:21.849Z,102197.25
2022-12-27T14:58:01.263Z,102195.63
2022-12-27T15:00:36.314Z,102193.16
2022-12-27T15:03:20.219Z,102186.06
2022-12-27T15:06:04.832Z,102194.50
2022-12-27T15:08:49.978Z,102185.84
2022-12-27T15:11:35.456Z,102195.06
2022-12-27T15:14:25.433Z,102199.38
2022-12-27T15:17:18.325Z,102214.56
2022-12-27T15:19:57.242Z,102196.41
2022-12-27T15:22:48.228Z,102210.00
2022-12-27T15:25:51.524Z,102209.03
2022-12-27T15:28:32.265Z,102205.72
2022-12-27T15:31:11.568Z,102202.06
2022-12-27T15:33:52.517Z,102188.09
2022-12-27T15:36:22.320Z,102191.53
2022-12-27T15:38:54.458Z,102196.75
2022-12-27T15:41:25.145Z,102205.34
2022-12-27T15:44:10.881Z,102202.78
2022-12-27T15:46:48.341Z,102209.50
2022-12-27T15:49:34.898Z,102200.19
2022-12-27T15:52:35.646Z,102200.31
2022-12-27T15:55:30.984Z,102198.09
2022-12-27T15:58:19.496Z,102186.78
2022-12-27T16:01:07.740Z,102178.31
2022-12-27T16:03:42.653Z,102182.28
2022-12-27T16:06:30.719Z,102188.09
2022-12-27T16:09:25.767Z,102176.34
2022-12-27T16:12:25.517Z,102172.84
2022-12-27T16:15:31.662Z,102183.38
2022-12-27T16:17:59.247Z,102183.03
2022-12-27T16:20:26.974Z,102169.97
2022-12-27T16:23:07.039Z,102176.13
2022-12-27T16:25:38.239Z,102168.38
2022-12-27T16:28:10.186Z,102173.66
2022-12-27T16:30:45.757Z,102171.28
2022-12-27T16:33:27.176Z,102167.69
2022-12-27T16:36:13.004Z,102167.69
2022-12-27T16:38:45.980Z,102173.72
2022-12-27T16:41:26.050Z,102175.28
2022-12-27T16:44:06.965Z,102175.19
2022-12-27T16:46:49.877Z,102169.44
2022-12-27T16:49:54.226Z,102169.44
2022-12-27T16:53:03.555Z,102162.59
2022-12-27T16:55:49.338Z,102153.31
2022-12-27T16:58:31.994Z,102138.41
2022-12-27T17:01:01.808Z,102139.63
2022-12-27T17:03:30.831Z,102125.78
2022-12-27T17:09:10.744Z,102121.81
2022-12-27T17:12:03.324Z,102102.44
2022-12-27T17:14:36.220Z,102115.75
2022-12-27T17:17:09.929Z,102115.75
2022-12-27T17:19:45.351Z,102115.63
2022-12-27T17:22:17.779Z,102103.25
2022-12-27T17:24:46.823Z,102114.41
2022-12-27T17:27:47.745Z,102107.53
2022-12-27T17:30:54.693Z,102104.78
2022-12-27T17:33:37.218Z,102106.69
2022-12-27T17:36:04.616Z,102099.00
2022-12-27T17:38:53.719Z,102094.84
2022-12-27T17:41:54.224Z,102082.66
2022-12-27T17:44:49.598Z,102069.78
2022-12-27T17:47:44.752Z,102061.41
2022-12-27T17:50:20.147Z,102068.28
2022-12-27T17:53:41.678Z,102072.31
2022-12-27T17:56:29.407Z,102073.03
2022-12-27T17:59:15.491Z,102062.72
2022-12-27T18:01:50.927Z,102071.38
2022-12-27T18:04:33.238Z,102055.75
2022-12-27T18:07:04.136Z,102051.66
2022-12-27T18:09:40.676Z,102051.75
2022-12-27T18:12:27.019Z,102057.56
2022-12-27T18:15:14.877Z,102061.91
2022-12-27T18:17:52.925Z,102041.16
2022-12-27T18:20:29.636Z,102045.69
2022-12-27T18:23:03.081Z,102029.25
2022-12-27T18:25:33.390Z,102027.44
2022-12-27T18:28:06.887Z,102036.16
2022-12-27T18:30:43.951Z,102032.94
2022-12-27T18:33:14.939Z,102028.66
2022-12-27T18:35:47.150Z,102010.53
2022-12-27T18:38:26.840Z,102010.53
2022-12-27T18:41:17.943Z,101994.69
2022-12-27T18:43:51.292Z,102006.63
2022-12-27T18:46:33.513Z,101991.13
2022-12-27T18:49:02.039Z,101986.63
2022-12-27T18:51:35.953Z,101984.94
2022-12-27T18:54:21.210Z,101978.94
2022-12-27T18:56:53.228Z,101975.72
2022-12-27T18:59:27.979Z,101972.22
2022-12-27T19:01:58.703Z,101978.25
2022-12-27T19:04:29.604Z,101973.97
2022-12-27T19:06:58.970Z,101976.28
2022-12-27T19:09:32.456Z,101966.47
2022-12-27T19:12:02.894Z,101958.63
2022-12-27T19:14:42.730Z,101976.72
2022-12-27T19:17:24.014Z,101967.22
2022-12-27T19:19:56.152Z,101958.34
2022-12-27T19:22:51.724Z,101957.41
2022-12-27T19:25:23.783Z,101965.69
2022-12-27T19:28:17.614Z,101946.50
2022-12-27T19:30:51.276Z,101949.94
2022-12-27T19:33:33.490Z,101927.31
2022-12-27T19:36:02.963Z,101936.91
2022-12-27T19:38:34.546Z,101938.66
2022-12-27T19:41:04.319Z,101946.19
2022-12-27T19:43:45.454Z,101930.69
2022-12-27T19:46:14.767Z,101922.03
2022-12-27T19:48:42.396Z,101911.81
2022-12-27T19:51:16.380Z,101918.72
2022-12-27T19:53:46.494Z,101917.91
2022-12-27T19:56:14.118Z,101905.09
2022-12-27T19:58:41.694Z,101908.50
2022-12-27T20:01:09.401Z,101905.19
2022-12-27T20:03:37.186Z,101897.34
2022-12-27T20:06:13.953Z,101894.00
2022-12-27T20:08:50.178Z,101881.03
2022-12-27T20:11:21.475Z,101881.91
2022-12-27T20:13:49.714Z,101875.13
2022-12-27T20:16:20.099Z,101872.66
2022-12-27T20:18:48.661Z,101878.66
2022-12-27T20:21:19.371Z,101867.50
2022-12-27T20:23:48.272Z,101852.09
2022-12-27T20:26:21.269Z,101852.16
2022-12-27T20:28:50.040Z,101850.53
2022-12-27T20:31:20.445Z,101840.31
2022-12-27T20:33:56.048Z,101842.06
2022-12-27T20:36:25.214Z,101849.06
2022-12-27T20:38:53.286Z,101845.56
2022-12-27T20:41:23.082Z,101835.19
2022-12-27T20:43:56.510Z,101836.09
2022-12-27T20:46:24.886Z,101813.59
2022-12-27T20:48:53.748Z,101821.41
2022-12-27T20:51:25.315Z,101830.25
2022-12-27T20:53:57.489Z,101826.75
2022-12-27T20:56:25.584Z,101812.13
2022-12-27T20:58:53.801Z,101807.59
2022-12-27T21:01:24.120Z,101816.50
2022-12-27T21:03:52.014Z,101815.59
2022-12-27T21:06:22.266Z,101807.06
2022-12-27T21:08:56.572Z,101810.47
2022-12-27T21:11:31.570Z,101809.59
2022-12-27T21:14:01.251Z,101799.22
2022-12-27T21:16:31.058Z,101780.09
2022-12-27T21:19:02.719Z,101789.72
2022-12-27T21:21:30.250Z,101776.75
2022-12-27T21:23:58.934Z,101781.13
2022-12-27T21:26:33.664Z,101777.75
2022-12-27T21:29:03.860Z,101773.44
2022-12-27T21:31:31.948Z,101747.72
2022-12-27T21:34:00.457Z,101763.34
2022-12-27T21:36:31.270Z,101764.94
2022-12-27T21:38:59.414Z,101764.19
2022-12-27T21:41:31.748Z,101752.69
2022-12-27T21:43:59.865Z,101749.28
2022-12-27T21:46:32.940Z,101747.63
2022-12-27T21:49:03.025Z,101733.63
2022-12-27T21:51:32.423Z,101742.28
2022-12-27T21:54:00.185Z,101737.28
2022-12-27T21:56:27.809Z,101749.44
2022-12-27T21:58:56.397Z,101736.50
2022-12-27T22:01:29.615Z,101728.69
2022-12-27T22:03:58.820Z,101723.72
2022-12-27T22:06:32.196Z,101723.72
2022-12-27T22:09:02.231Z,101717.72
2022-12-27T22:11:31.636Z,101721.22
2022-12-27T22:13:59.660Z,101712.63
2022-12-27T22:16:33.627Z,101710.84
2022-12-27T22:19:01.632Z,101707.97
2022-12-27T22:21:32.149Z,101708.72
2022-12-27T22:24:02.186Z,101706.22
2022-12-27T22:26:34.341Z,101711.91
2022-12-27T22:29:03.659Z,101708.44
2022-12-27T22:31:36.149Z,101704.03
2022-12-27T22:34:04.979Z,101698.06
2022-12-27T22:36:32.572Z,101682.19
2022-12-27T22:39:01.496Z,101700.25
2022-12-27T22:41:37.067Z,101699.34
2022-12-27T22:44:10.999Z,101692.53
2022-12-27T22:47:15.279Z,101682.03
2022-12-27T22:49:27.437Z,101676.88
2022-12-27T22:51:55.013Z,101669.09
2022-12-27T22:55:03.277Z,101644.13
2022-12-27T22:57:10.115Z,101650.06
2022-12-27T22:59:37.724Z,101640.66
2022-12-27T23:02:05.733Z,101626.88
2022-12-27T23:04:33.568Z,101620.84
2022-12-27T23:07:02.141Z,101622.50
2022-12-27T23:09:30.240Z,101620.00
2022-12-27T23:11:57.879Z,101615.06
2022-12-27T23:14:25.398Z,101606.25
2022-12-27T23:16:53.030Z,101610.09
2022-12-27T23:19:24.234Z,101607.63
2022-12-27T23:21:51.798Z,101597.22
2022-12-27T23:24:19.344Z,101594.63
2022-12-27T23:26:47.065Z,101591.81
2022-12-27T23:29:15.708Z,101583.88
2022-12-27T23:31:55.592Z,101586.47
2022-12-27T23:34:29.505Z,101586.56
2022-12-27T23:37:01.069Z,101569.16
2022-12-27T23:39:29.190Z,101575.44
2022-12-27T23:41:56.771Z,101569.47
2022-12-27T23:44:33.980Z,101562.72
2022-12-27T23:47:04.413Z,101554.09
2022-12-27T23:49:32.118Z,101544.59
2022-12-27T23:51:59.678Z,101518.69
2022-12-27T23:54:27.228Z,101507.44
2022-12-27T23:56:54.837Z,101497.00
2022-12-27T23:59:22.446Z,101510.97
